KSTL/STL METAR and TAF weather

Enter ICAO airport designator
Station Type Date Time Source
KSTL METAR 2018/12/17 16:51 UTC NOAA

KSTL 171651Z 33005KT 10SM FEW250 06/M03 A3030 RMK AO2 SLP266 T00611033


Station Type Date Time Source
KSTL Decoded METAR 2018/12/17 16:51 UTC NOAA

LAMBERT-ST LOUIS INTERNATIONAL AIRPORT , MO, United States (KSTL) 38-45N 90-22W 171M
Dec 17, 2018 - 11:51 AM EST / 2018.12.17 1651 UTC
Wind: from the NNW (330 degrees) at 6 MPH (5 KT):0
Visibility: 10 mile(s):0
Sky conditions: mostly clear
Temperature: 43.0 F (6.1 C)
Dew Point: 26.1 F (-3.3 C)
Relative Humidity: 50%
Pressure (altimeter): 30.3 in. Hg (1026 hPa)
ob: KSTL 171651Z 33005KT 10SM FEW250 06/M03 A3030 RMK AO2 SLP266 T00611033
cycle: 17

Station Type Date Time Source
KSTL TAF 2018/12/17 18:22 UTC NOAA

TAF KSTL 171720Z 1718/1824 VRB04KT P6SM SKC


Example: see airport list